createdAt,value
2023-07-03T00:01:57.009Z,8.60
2023-07-03T00:05:11.220Z,8.30
2023-07-03T00:08:23.659Z,6.87
2023-07-03T00:11:39.536Z,9.70
2023-07-03T00:14:52.139Z,8.00
2023-07-03T00:18:05.034Z,7.25
2023-07-03T00:21:17.688Z,9.43
2023-07-03T00:24:31.441Z,15.57
2023-07-03T00:27:44.231Z,8.05
2023-07-03T00:30:57.113Z,8.55
2023-07-03T00:34:09.561Z,7.15
2023-07-03T00:37:24.932Z,7.35
2023-07-03T00:40:37.287Z,7.43
2023-07-03T00:43:49.926Z,8.57
2023-07-03T00:47:04.684Z,7.37
2023-07-03T00:50:17.400Z,9.93
2023-07-03T00:53:30.766Z,12.20
2023-07-03T00:56:43.449Z,9.52
2023-07-03T00:59:55.872Z,10.25
2023-07-03T01:03:14.519Z,6.97
2023-07-03T01:06:29.554Z,7.68
2023-07-03T01:09:57.087Z,9.80
2023-07-03T01:13:14.806Z,8.10
2023-07-03T01:16:27.729Z,8.60
2023-07-03T01:19:42.961Z,11.50
2023-07-03T01:23:08.870Z,10.25
2023-07-03T01:26:21.296Z,10.82
2023-07-03T01:29:34.014Z,8.65
2023-07-03T01:32:48.033Z,10.13
2023-07-03T01:36:00.882Z,8.77
2023-07-03T01:39:14.933Z,12.68
2023-07-03T01:42:28.046Z,10.38
2023-07-03T01:45:45.073Z,9.20
2023-07-03T01:48:57.820Z,11.50
2023-07-03T01:52:18.316Z,8.82
2023-07-03T01:55:36.860Z,9.30
2023-07-03T01:58:50.804Z,7.97
2023-07-03T02:02:07.684Z,7.43
2023-07-03T02:05:24.511Z,8.70
2023-07-03T02:08:36.849Z,14.32
2023-07-03T02:11:49.965Z,10.02
2023-07-03T02:15:06.096Z,9.00
2023-07-03T02:18:22.018Z,8.20
2023-07-03T02:21:34.464Z,9.60
2023-07-03T02:24:48.102Z,11.00
2023-07-03T02:28:00.759Z,10.77
2023-07-03T02:31:13.550Z,15.93
2023-07-03T02:34:26.234Z,9.65
2023-07-03T02:37:38.678Z,11.25
2023-07-03T02:40:51.425Z,8.65
2023-07-03T02:44:04.041Z,10.18
2023-07-03T02:47:16.893Z,10.20
2023-07-03T02:50:29.320Z,9.57
2023-07-03T02:53:43.099Z,9.75
2023-07-03T02:56:55.814Z,8.80
2023-07-03T03:00:08.844Z,9.35
2023-07-03T03:03:21.779Z,10.18
2023-07-03T03:06:34.487Z,11.12
2023-07-03T03:09:47.327Z,12.88
2023-07-03T03:13:00.250Z,9.50
2023-07-03T03:16:12.715Z,12.88
2023-07-03T03:19:25.541Z,9.68
2023-07-03T03:22:38.032Z,7.97
2023-07-03T03:25:51.017Z,12.73
2023-07-03T03:29:03.889Z,10.20
2023-07-03T03:32:16.904Z,9.15
2023-07-03T03:35:29.484Z,11.57
2023-07-03T03:38:42.209Z,10.27
2023-07-03T03:41:54.642Z,8.57
2023-07-03T03:45:07.817Z,9.20
2023-07-03T03:48:20.764Z,10.45
2023-07-03T03:51:35.216Z,8.50
2023-07-03T03:54:48.519Z,9.57
2023-07-03T03:58:01.226Z,13.38
2023-07-03T04:01:14.437Z,10.70
2023-07-03T04:04:27.309Z,9.90
2023-07-03T04:07:40.268Z,8.80
2023-07-03T04:10:53.056Z,7.93
2023-07-03T04:14:05.437Z,11.23
2023-07-03T04:17:18.099Z,11.02
2023-07-03T04:20:30.922Z,10.45
2023-07-03T04:23:43.916Z,8.95
2023-07-03T04:26:58.407Z,10.13
2023-07-03T04:30:11.644Z,8.75
2023-07-03T04:33:24.106Z,9.27
2023-07-03T04:36:36.807Z,12.50
2023-07-03T04:39:49.215Z,12.37
2023-07-03T04:43:02.116Z,13.15
2023-07-03T04:46:14.595Z,7.80
2023-07-03T04:49:27.586Z,13.93
2023-07-03T04:52:40.275Z,10.38
2023-07-03T04:55:53.174Z,11.02
2023-07-03T04:59:05.817Z,10.70
2023-07-03T05:02:19.451Z,12.43
2023-07-03T05:05:32.107Z,10.82
2023-07-03T05:08:44.791Z,9.38
2023-07-03T05:11:57.124Z,12.32
2023-07-03T05:15:11.340Z,10.77
2023-07-03T05:18:23.772Z,11.82
2023-07-03T05:21:36.392Z,10.45
2023-07-03T05:24:49.279Z,8.68
2023-07-03T05:28:02.014Z,13.88
2023-07-03T05:31:14.461Z,10.32
2023-07-03T05:34:28.048Z,9.95
2023-07-03T05:37:40.415Z,18.23
2023-07-03T05:40:53.102Z,14.55
2023-07-03T05:44:05.611Z,11.45
2023-07-03T05:47:18.479Z,12.68
2023-07-03T05:50:31.436Z,10.95
2023-07-03T05:53:44.195Z,9.90
2023-07-03T05:57:01.001Z,22.08
2023-07-03T06:00:14.677Z,10.60
2023-07-03T06:03:33.244Z,10.40
2023-07-03T06:06:45.807Z,11.32
2023-07-03T06:09:58.635Z,9.05
2023-07-03T06:13:11.057Z,12.68
2023-07-03T06:16:23.754Z,12.68
2023-07-03T06:19:36.197Z,14.13
2023-07-03T06:22:48.978Z,8.43
2023-07-03T06:26:01.368Z,12.90
2023-07-03T06:29:15.757Z,9.10
2023-07-03T06:32:28.323Z,9.07
2023-07-03T06:35:41.018Z,9.25
2023-07-03T06:38:58.059Z,9.38
2023-07-03T06:42:11.322Z,8.15
2023-07-03T06:45:26.760Z,10.27
2023-07-03T06:48:39.429Z,15.07
2023-07-03T06:51:54.907Z,13.13
2023-07-03T06:59:14.615Z,11.02
2023-07-03T07:02:27.339Z,7.87
2023-07-03T07:05:39.921Z,9.85
2023-07-03T07:08:56.012Z,12.35
2023-07-03T07:12:08.775Z,13.18
2023-07-03T07:15:21.477Z,8.50
2023-07-03T07:18:33.957Z,8.40
2023-07-03T07:21:46.658Z,8.57
2023-07-03T07:24:59.146Z,7.93
2023-07-03T07:28:12.196Z,7.07
2023-07-03T07:31:25.605Z,8.55
2023-07-03T07:34:38.361Z,8.38
2023-07-03T07:37:50.789Z,8.35
2023-07-03T07:41:03.735Z,5.40
2023-07-03T07:44:16.174Z,6.15
2023-07-03T07:47:29.997Z,5.47
2023-07-03T07:50:42.443Z,8.95
2023-07-03T07:53:55.253Z,10.82
2023-07-03T07:57:08.233Z,8.40
2023-07-03T08:00:21.387Z,7.40
2023-07-03T08:03:34.213Z,9.77
2023-07-03T08:06:46.776Z,11.18
2023-07-03T08:10:00.210Z,9.57
2023-07-03T08:13:12.577Z,9.50
2023-07-03T08:16:26.834Z,8.48
2023-07-03T08:19:39.322Z,10.27
2023-07-03T08:22:51.977Z,9.35
2023-07-03T08:26:04.515Z,12.15
2023-07-03T08:29:17.238Z,8.10
2023-07-03T08:32:29.700Z,8.40
2023-07-03T08:38:57.848Z,8.60
2023-07-03T08:42:22.409Z,7.62
2023-07-03T08:45:36.619Z,8.60
2023-07-03T08:48:50.502Z,7.37
2023-07-03T08:52:06.907Z,9.98
2023-07-03T08:55:23.116Z,10.60
2023-07-03T08:58:35.509Z,9.50
2023-07-03T09:01:57.869Z,11.73
2023-07-03T09:05:54.741Z,9.70
2023-07-03T09:09:12.730Z,11.35
2023-07-03T09:12:37.257Z,9.73
2023-07-03T09:15:55.138Z,9.47
2023-07-03T09:19:13.391Z,12.85
2023-07-03T09:22:53.227Z,10.38
2023-07-03T09:26:08.974Z,9.52
2023-07-03T09:29:21.717Z,13.48
2023-07-03T09:32:34.367Z,10.45
2023-07-03T09:35:48.899Z,11.60
2023-07-03T09:39:13.143Z,10.20
2023-07-03T09:42:27.021Z,9.63
2023-07-03T09:45:39.478Z,11.45
2023-07-03T09:48:52.612Z,11.10
2023-07-03T09:52:06.854Z,12.70
2023-07-03T09:55:21.162Z,15.85
2023-07-03T09:58:34.223Z,12.80
2023-07-03T10:08:25.219Z,13.27
2023-07-03T10:12:00.445Z,10.60
2023-07-03T10:15:19.405Z,14.43
2023-07-03T10:18:36.635Z,14.98
2023-07-03T10:21:49.066Z,16.60
2023-07-03T10:25:02.944Z,12.75
2023-07-03T10:28:24.876Z,12.30
2023-07-03T10:31:41.029Z,14.52
2023-07-03T10:35:07.968Z,12.55
2023-07-03T10:38:35.312Z,11.70
2023-07-03T10:41:55.254Z,11.60
2023-07-03T10:45:14.743Z,17.05
2023-07-03T10:48:29.561Z,13.52
2023-07-03T10:51:55.757Z,13.15
2023-07-03T10:55:45.696Z,12.75
2023-07-03T10:59:10.914Z,11.93
2023-07-03T11:02:45.942Z,14.05
2023-07-03T11:06:11.914Z,14.05
2023-07-03T11:09:58.459Z,14.32
2023-07-03T11:13:19.902Z,16.23
2023-07-03T11:16:44.388Z,15.35
2023-07-03T11:20:17.790Z,14.13
2023-07-03T11:23:38.133Z,12.30
2023-07-03T11:30:09.768Z,13.05
2023-07-03T11:33:22.995Z,15.85
2023-07-03T11:36:49.854Z,13.93
2023-07-03T11:40:27.675Z,13.40
2023-07-03T11:43:43.971Z,13.30
2023-07-03T11:46:59.111Z,14.85
2023-07-03T11:50:11.485Z,13.62
2023-07-03T11:53:50.213Z,12.75
2023-07-03T11:57:29.549Z,14.50
2023-07-03T12:00:42.768Z,16.23
2023-07-03T12:03:57.480Z,14.75
2023-07-03T12:07:10.758Z,15.98
2023-07-03T12:10:29.597Z,14.65
2023-07-03T12:13:42.547Z,15.98
2023-07-03T12:16:55.298Z,16.12
2023-07-03T12:20:35.921Z,18.98
2023-07-03T12:23:49.674Z,13.60
2023-07-03T12:27:04.950Z,13.82
2023-07-03T12:30:22.704Z,17.62
2023-07-03T12:33:35.118Z,15.57
2023-07-03T12:36:54.072Z,14.27
2023-07-03T12:40:11.325Z,15.98
2023-07-03T12:43:23.991Z,14.38
2023-07-03T12:46:38.571Z,14.40
2023-07-03T12:50:01.051Z,13.00
2023-07-03T12:53:14.100Z,14.05
2023-07-03T12:56:30.409Z,13.73
2023-07-03T12:59:53.148Z,13.43
2023-07-03T13:03:07.510Z,13.38
2023-07-03T13:06:29.476Z,13.02
2023-07-03T13:09:44.178Z,15.73
2023-07-03T13:13:10.011Z,14.32
2023-07-03T13:16:22.853Z,13.75
2023-07-03T13:19:36.405Z,15.68
2023-07-03T13:22:50.619Z,12.27
2023-07-03T13:26:08.710Z,14.20
2023-07-03T13:29:30.638Z,14.43
2023-07-03T13:33:02.046Z,17.83
2023-07-03T13:36:23.312Z,15.20
2023-07-03T13:39:36.887Z,13.50
2023-07-03T13:42:57.322Z,12.93
2023-07-03T13:46:09.788Z,14.40
2023-07-03T13:49:22.484Z,15.20
2023-07-03T13:52:37.644Z,14.93
2023-07-03T13:55:50.976Z,18.00
2023-07-03T13:59:05.221Z,15.85
2023-07-03T14:02:17.952Z,18.62
2023-07-03T14:05:30.704Z,16.55
2023-07-03T14:08:43.149Z,15.57
2023-07-03T14:11:55.828Z,13.65
2023-07-03T14:15:16.757Z,14.25
2023-07-03T14:18:29.472Z,13.13
2023-07-03T14:21:41.872Z,14.15
2023-07-03T14:24:54.711Z,13.55
2023-07-03T14:28:07.073Z,12.95
2023-07-03T14:31:19.790Z,16.55
2023-07-03T14:34:32.798Z,13.85
2023-07-03T14:37:45.487Z,15.98
2023-07-03T14:40:58.517Z,16.05
2023-07-03T14:44:11.214Z,14.18
2023-07-03T14:47:23.700Z,16.80
2023-07-03T14:50:36.482Z,17.08
2023-07-03T14:53:48.819Z,12.65
2023-07-03T14:57:01.591Z,14.73
2023-07-03T15:00:14.658Z,17.05
2023-07-03T15:03:27.417Z,16.27
2023-07-03T15:06:42.951Z,13.15
2023-07-03T15:09:55.620Z,13.07
2023-07-03T15:13:08.868Z,13.65
2023-07-03T15:16:29.614Z,14.00
2023-07-03T15:19:42.032Z,13.70
2023-07-03T15:22:54.732Z,14.63
2023-07-03T15:26:07.388Z,16.48
2023-07-03T15:29:20.037Z,15.95
2023-07-03T15:32:32.447Z,14.57
2023-07-03T15:35:55.318Z,14.52
2023-07-03T15:39:07.793Z,13.27
2023-07-03T15:42:21.217Z,16.30
2023-07-03T15:45:33.596Z,14.48
2023-07-03T15:48:47.594Z,16.80
2023-07-03T15:51:59.969Z,16.48
2023-07-03T15:55:12.607Z,13.20
2023-07-03T15:58:27.008Z,17.85
2023-07-03T16:01:39.807Z,13.55
2023-07-03T16:04:52.617Z,16.90
2023-07-03T16:08:05.032Z,16.05
2023-07-03T16:11:19.468Z,15.90
2023-07-03T16:14:31.885Z,15.20
2023-07-03T16:17:44.636Z,16.85
2023-07-03T16:20:57.457Z,17.35
2023-07-03T16:24:10.109Z,15.02
2023-07-03T16:27:22.582Z,15.13
2023-07-03T16:30:35.331Z,14.30
2023-07-03T16:33:49.336Z,15.65
2023-07-03T16:37:02.073Z,14.32
2023-07-03T16:40:14.742Z,15.77
2023-07-03T16:43:34.195Z,15.07
2023-07-03T16:46:46.653Z,13.30
2023-07-03T16:49:59.401Z,16.27
2023-07-03T16:53:11.793Z,18.08
2023-07-03T16:56:26.361Z,14.38
2023-07-03T16:59:38.839Z,15.77
2023-07-03T17:02:52.173Z,13.10
2023-07-03T17:06:06.833Z,13.50
2023-07-03T17:09:20.306Z,14.23
2023-07-03T17:12:32.734Z,15.60
2023-07-03T17:15:45.412Z,14.15
2023-07-03T17:18:57.898Z,18.35
2023-07-03T17:22:10.580Z,14.30
2023-07-03T17:25:23.110Z,15.82
2023-07-03T17:28:35.836Z,16.85
2023-07-03T17:31:48.214Z,14.55
2023-07-03T17:35:01.126Z,18.27
2023-07-03T17:38:16.921Z,20.77
2023-07-03T17:41:30.926Z,17.23
2023-07-03T17:44:43.308Z,15.65
2023-07-03T17:47:56.122Z,15.27
2023-07-03T17:51:08.567Z,13.55
2023-07-03T17:54:21.216Z,18.65
2023-07-03T17:57:33.597Z,14.18
2023-07-03T18:00:46.269Z,14.90
2023-07-03T18:04:01.592Z,16.80
2023-07-03T18:07:16.115Z,15.38
2023-07-03T18:10:33.042Z,16.30
2023-07-03T18:13:45.734Z,15.52
2023-07-03T18:16:58.472Z,15.68
2023-07-03T18:20:11.511Z,17.02
2023-07-03T18:23:24.295Z,17.30
2023-07-03T18:26:36.969Z,20.10
2023-07-03T18:29:49.620Z,18.35
2023-07-03T18:33:02.096Z,16.58
2023-07-03T18:36:14.832Z,14.85
2023-07-03T18:39:27.382Z,14.18
2023-07-03T18:42:40.070Z,17.65
2023-07-03T18:45:52.706Z,16.02
2023-07-03T18:49:05.688Z,14.75
2023-07-03T18:52:18.117Z,13.70
2023-07-03T18:55:30.838Z,18.58
2023-07-03T18:58:46.369Z,13.82
2023-07-03T19:01:59.051Z,16.23
2023-07-03T19:05:11.450Z,17.35
2023-07-03T19:08:24.156Z,15.48
2023-07-03T19:11:38.724Z,17.58
2023-07-03T19:14:51.924Z,17.25
2023-07-03T19:18:04.433Z,15.07
2023-07-03T19:21:17.399Z,16.77
2023-07-03T19:24:29.893Z,16.05
2023-07-03T19:27:42.569Z,14.68
2023-07-03T19:30:56.018Z,18.42
2023-07-03T19:34:08.710Z,17.17
2023-07-03T19:37:21.146Z,14.75
2023-07-03T19:40:38.008Z,16.48
2023-07-03T19:47:02.964Z,16.12
2023-07-03T19:50:15.894Z,16.95
2023-07-03T19:53:28.983Z,19.42
2023-07-03T19:56:41.356Z,20.45
2023-07-03T19:59:56.313Z,19.00
2023-07-03T20:03:11.421Z,14.68
2023-07-03T20:06:24.550Z,18.75
2023-07-03T20:09:37.486Z,18.83
2023-07-03T20:12:51.740Z,19.80
2023-07-03T20:16:04.522Z,20.45
2023-07-03T20:19:17.352Z,17.85
2023-07-03T20:22:30.456Z,16.05
2023-07-03T20:25:43.153Z,17.60
2023-07-03T20:28:55.610Z,19.77
2023-07-03T20:32:08.346Z,20.95
2023-07-03T20:35:20.801Z,20.42
2023-07-03T20:38:33.556Z,19.12
2023-07-03T20:41:45.905Z,18.83
2023-07-03T20:44:58.716Z,20.05
2023-07-03T20:48:11.142Z,19.62
2023-07-03T20:51:27.347Z,16.02
2023-07-03T20:54:44.524Z,20.10
2023-07-03T20:57:57.292Z,19.30
2023-07-03T21:01:13.930Z,19.30
2023-07-03T21:04:27.100Z,22.55
2023-07-03T21:07:39.771Z,18.85
2023-07-03T21:11:01.531Z,21.92
2023-07-03T21:14:14.144Z,19.15
2023-07-03T21:17:26.921Z,23.60
2023-07-03T21:20:39.264Z,20.95
2023-07-03T21:23:52.463Z,20.42
2023-07-03T21:27:05.214Z,18.05
2023-07-03T21:30:17.950Z,19.85
2023-07-03T21:33:31.319Z,19.55
2023-07-03T21:36:43.952Z,16.55
2023-07-03T21:39:56.264Z,20.17
2023-07-03T21:43:08.904Z,15.02
2023-07-03T21:46:22.337Z,18.55
2023-07-03T21:49:34.976Z,20.65
2023-07-03T21:52:47.403Z,20.58
2023-07-03T21:56:10.555Z,18.20
2023-07-03T21:59:22.940Z,19.65
2023-07-03T22:02:35.598Z,20.12
2023-07-03T22:05:48.297Z,21.35
2023-07-03T22:09:00.775Z,20.50
2023-07-03T22:12:13.442Z,18.12
2023-07-03T22:15:25.845Z,20.65
2023-07-03T23:34:37.937Z,20.25
2023-07-03T23:37:52.327Z,20.83
2023-07-03T23:41:09.496Z,20.88
2023-07-03T23:44:22.526Z,21.02
2023-07-03T23:47:34.957Z,19.87
2023-07-03T23:51:00.210Z,20.77
2023-07-03T23:54:12.720Z,23.25
2023-07-03T23:57:25.440Z,18.25
